Highland Heights, Ohio
Current Conditions -  °F | °C
As of 5:45 PM on Saturday 20 Dec 2014 (Local Time) from KCGF Reporting Station
Overcast Overcast  
Wind Chill: 26°   Ceiling: 2500
Heat Index: 32°   Visibility: 7mi
Dew Point: 25°   Wind: 6mph
Humidity: 75%   Direction: 280°W
Pressure: 30.27"   Gusts: NA
Location:  41.5545°N, 81.4746°W
Report Text: KCGF 202245Z 28005KT 7SM OVC025 00/M04 A3027
Loading
Personal Weather Stations






























Interactive Weather Map New forecast layout! Learn more

10-Day Weather Forecast

Advertisements
Track Severe Weather on mobile